Time;durP1;ratioP1;P1;durP2;ratioP2;P2;SDS_P1;SDS_P2;PMS_P1;PMS_P2;Temp;Humidity;BMP_temperature;BMP_pressure;BME280_temperature;BME280_humidity;BME280_pressure;Samples;Min_cycle;Max_cycle;Signal;HPM_P1;HPM_P2
2021/07/12 00:00:59;;;;;;;1999.90;999.90;;;;;;;22.70;86.67;98130.97;5052913;28;20079;-65
2021/07/12 00:03:26;;;;;;;1999.90;999.90;;;;;;;22.70;87.00;98122.50;5052165;28;20053;-65
2021/07/12 00:05:54;;;;;;;1999.90;999.90;;;;;;;22.54;88.02;98123.03;5051587;28;20045;-65
2021/07/12 00:08:21;;;;;;;1999.90;999.90;;;;;;;22.65;87.18;98132.22;5052754;28;20068;-65
2021/07/12 00:10:48;;;;;;;1999.90;999.90;;;;;;;22.62;87.18;98120.97;5052010;28;20106;-65
2021/07/12 00:13:14;;;;;;;1999.90;999.90;;;;;;;22.27;89.62;98105.84;5050321;28;20041;-65
2021/07/12 00:15:41;;;;;;;1999.90;999.90;;;;;;;22.27;89.97;98117.91;5052448;28;20136;-65
2021/07/12 00:18:07;;;;;;;1999.90;999.90;;;;;;;22.32;89.58;98113.91;5051026;28;20309;-65
2021/07/12 00:20:34;;;;;;;1999.90;999.90;;;;;;;21.56;93.97;98108.53;5050963;28;20485;-65
2021/07/12 00:23:01;;;;;;;1999.90;999.90;;;;;;;21.31;96.46;98133.06;5052655;28;20055;-66
2021/07/12 00:25:29;;;;;;;1999.90;999.90;;;;;;;20.98;98.71;98116.19;5052020;28;20052;-67
2021/07/12 00:28:00;;;;;;;1999.90;999.90;;;;;;;21.17;99.04;98119.78;5049958;28;20041;-67
2021/07/12 00:30:28;;;;;;;1999.90;999.90;;;;;;;21.30;97.99;98120.97;5051999;28;20079;-67
2021/07/12 00:32:56;;;;;;;1999.90;999.90;;;;;;;21.65;95.53;98108.09;5050909;28;20095;-67
2021/07/12 00:35:24;;;;;;;1999.90;999.90;;;;;;;21.20;97.53;98108.56;5045787;28;20513;-67
2021/07/12 00:37:52;;;;;;;1999.90;999.90;;;;;;;21.24;98.92;98108.53;5051142;28;20045;-67
2021/07/12 00:40:20;;;;;;;1999.90;999.90;;;;;;;21.64;96.02;98106.50;5050198;28;20499;-66
2021/07/12 00:42:48;;;;;;;1999.90;999.90;;;;;;;21.99;93.58;98096.34;5050859;28;20041;-66
2021/07/12 00:45:24;;;;;;;1999.90;999.90;;;;;;;21.92;93.83;98102.00;5051342;28;20071;-67
2021/07/12 00:47:53;;;;;;;1999.90;999.90;;;;;;;22.24;92.30;98101.84;5051115;28;20049;-67
2021/07/12 00:50:23;;;;;;;1999.90;999.90;;;;;;;22.33;91.69;98098.63;5047537;28;20098;-67
2021/07/12 00:52:51;;;;;;;1999.90;999.90;;;;;;;22.50;90.52;98089.22;5051073;28;20049;-67
2021/07/12 00:55:29;;;;;;;1999.90;999.90;;;;;;;22.04;92.66;98090.28;5051182;28;20146;-66
2021/07/12 00:57:56;;;;;;;1999.90;999.90;;;;;;;22.26;92.36;98090.97;5051083;28;20052;-66
2021/07/12 01:00:24;;;;;;;1999.90;999.90;;;;;;;22.45;90.73;98098.13;5049901;28;20049;-67
2021/07/12 01:02:52;;;;;;;1999.90;999.90;;;;;;;22.38;90.95;98098.16;5051336;28;20048;-67
2021/07/12 01:05:21;;;;;;;1999.90;999.90;;;;;;;22.28;91.37;98096.19;5051200;28;20049;-67
2021/07/12 01:07:48;;;;;;;1999.90;999.90;;;;;;;22.00;92.52;98089.47;5048978;28;20150;-66
2021/07/12 01:10:17;;;;;;;1999.90;999.90;;;;;;;22.15;92.46;98105.09;5051372;28;20080;-67
2021/07/12 01:13:16;;;;;;;1999.90;999.90;;;;;;;22.31;91.03;98101.00;5051008;28;20324;-67
2021/07/12 01:16:18;;;;;;;1999.90;999.90;;;;;;;22.15;92.10;98104.28;5044330;28;20135;-67
2021/07/12 01:18:51;;;;;;;1999.90;999.90;;;;;;;22.37;90.60;98107.81;5053885;28;20099;-66
2021/07/12 01:21:51;;;;;;;1999.90;999.90;;;;;;;22.50;90.27;98120.22;5041511;28;20130;-67
2021/07/12 01:24:49;;;;;;;1999.90;999.90;;;;;;;22.58;89.96;98125.81;5050942;28;20090;-66
2021/07/12 01:27:44;;;;;;;1999.90;999.90;;;;;;;22.51;89.49;98132.31;5050860;28;20304;-67
2021/07/12 01:30:18;;;;;;;1999.90;999.90;;;;;;;22.45;90.05;98123.47;5049593;28;20049;-67
2021/07/12 01:32:57;;;;;;;1999.90;999.90;;;;;;;22.09;91.92;98118.00;5049590;28;20045;-67
2021/07/12 01:35:45;;;;;;;1999.90;999.90;;;;;;;21.96;92.82;98126.09;5050626;28;20099;-67
2021/07/12 01:38:45;;;;;;;1999.90;999.90;;;;;;;22.29;91.42;98125.97;5049807;28;20048;-67
2021/07/12 01:41:18;;;;;;;1999.90;999.90;;;;;;;22.41;90.90;98133.97;5048219;28;20041;-66
2021/07/12 01:43:59;;;;;;;1999.90;999.90;;;;;;;22.28;90.99;98130.78;5049893;28;20460;-67
2021/07/12 01:46:39;;;;;;;1999.90;999.90;;;;;;;21.67;94.55;98119.75;5049660;28;20048;-66
2021/07/12 01:49:25;;;;;;;1999.90;999.90;;;;;;;22.10;92.30;98119.59;5050223;28;20049;-66
2021/07/12 01:52:05;;;;;;;1999.90;999.90;;;;;;;22.21;91.68;98127.19;5047165;28;20045;-67
2021/07/12 01:54:56;;;;;;;1999.90;999.90;;;;;;;22.38;90.71;98131.19;5049757;28;20362;-67
2021/07/12 01:57:28;;;;;;;1999.90;999.90;;;;;;;22.39;90.59;98127.13;5049525;28;20434;-67
2021/07/12 02:00:00;;;;;;;1999.90;999.90;;;;;;;22.08;91.80;98127.66;5050229;28;20098;-67
2021/07/12 02:02:28;;;;;;;1999.90;999.90;;;;;;;22.21;91.51;98122.38;5048952;28;20045;-67
2021/07/12 02:04:58;;;;;;;1999.90;999.90;;;;;;;22.40;91.17;98129.53;5050129;28;20052;-66
2021/07/12 02:07:27;;;;;;;1999.90;999.90;;;;;;;22.58;90.30;98123.00;5049854;28;20068;-66
2021/07/12 02:09:54;;;;;;;1999.90;999.90;;;;;;;22.61;89.74;98114.53;5045756;28;20041;-66
2021/07/12 02:12:22;;;;;;;1999.90;999.90;;;;;;;22.72;89.09;98113.63;5049084;28;20075;-66
2021/07/12 02:14:49;;;;;;;1999.90;999.90;;;;;;;22.75;89.35;98118.47;5050309;28;20389;-66
2021/07/12 02:17:18;;;;;;;1999.90;999.90;;;;;;;22.66;89.35;98102.81;5049141;28;20077;-66
2021/07/12 02:19:47;;;;;;;1999.90;999.90;;;;;;;22.31;90.94;98118.72;5049363;28;20090;-66
2021/07/12 02:22:15;;;;;;;1999.90;999.90;;;;;;;22.28;91.27;98113.88;5050622;28;20059;-66
2021/07/12 02:24:44;;;;;;;1999.90;999.90;;;;;;;22.32;91.59;98114.69;5048239;28;20049;-67
2021/07/12 02:27:11;;;;;;;1999.90;999.90;;;;;;;21.70;94.01;98113.31;5049209;28;20049;-66
2021/07/12 02:29:38;;;;;;;1999.90;999.90;;;;;;;21.56;96.15;98113.38;5051056;28;20102;-66
2021/07/12 02:32:05;;;;;;;1999.90;999.90;;;;;;;21.57;96.16;98114.94;5048971;28;20077;-66
2021/07/12 02:34:33;;;;;;;1999.90;999.90;;;;;;;21.53;95.77;98111.38;5049250;28;20052;-66
2021/07/12 02:37:00;;;;;;;1999.90;999.90;;;;;;;21.97;93.89;98121.25;5049451;28;20107;-66
2021/07/12 02:39:29;;;;;;;1999.90;999.90;;;;;;;22.30;92.11;98130.34;5049231;28;20041;-67
2021/07/12 02:41:57;;;;;;;1999.90;999.90;;;;;;;22.42;91.50;98132.75;5049304;28;20492;-67
2021/07/12 02:44:25;;;;;;;1999.90;999.90;;;;;;;22.55;91.06;98127.44;5049631;28;20045;-66
2021/07/12 02:46:52;;;;;;;1999.90;999.90;;;;;;;22.54;91.10;98136.31;5048749;28;20060;-67
2021/07/12 02:49:18;;;;;;;1999.90;999.90;;;;;;;22.64;90.51;98129.81;5048864;28;20102;-66
2021/07/12 02:51:53;;;;;;;1999.90;999.90;;;;;;;22.77;89.99;98127.31;5050108;28;20110;-67
2021/07/12 02:54:27;;;;;;;1999.90;999.90;;;;;;;22.79;89.67;98130.50;5049658;28;20099;-67
2021/07/12 02:56:53;;;;;;;1999.90;999.90;;;;;;;22.88;89.05;98122.38;5044294;28;20052;-67
2021/07/12 02:59:20;;;;;;;1999.90;999.90;;;;;;;22.68;89.31;98122.94;5049717;28;20033;-67
2021/07/12 03:01:47;;;;;;;1999.90;999.90;;;;;;;22.61;90.23;98113.72;5049105;28;20103;-67
2021/07/12 03:04:13;;;;;;;1999.90;999.90;;;;;;;22.55;90.82;98109.75;5048618;28;20331;-67
2021/07/12 03:06:43;;;;;;;1999.90;999.90;;;;;;;22.39;91.51;98113.03;5049866;28;20052;-66
2021/07/12 03:09:12;;;;;;;1999.90;999.90;;;;;;;22.57;90.77;98112.94;5049529;28;20045;-66
2021/07/12 03:11:51;;;;;;;1999.90;999.90;;;;;;;22.57;91.06;98129.84;5048587;28;20439;-66
2021/07/12 03:14:45;;;;;;;1999.90;999.90;;;;;;;22.45;91.11;98123.47;5049856;28;20061;-67
2021/07/12 03:17:16;;;;;;;1999.90;999.90;;;;;;;22.17;92.76;98119.56;5049910;28;20079;-66
2021/07/12 03:19:45;;;;;;;1999.90;999.90;;;;;;;22.59;91.28;98125.41;5048712;28;20048;-67
2021/07/12 03:22:14;;;;;;;1999.90;999.90;;;;;;;22.73;90.32;98120.88;5048356;28;20404;-67
2021/07/12 03:24:42;;;;;;;1999.90;999.90;;;;;;;22.49;91.35;98129.91;5052153;28;20397;-66
2021/07/12 03:27:11;;;;;;;1999.90;999.90;;;;;;;22.59;91.41;98128.22;5053362;28;20102;-66
2021/07/12 03:29:40;;;;;;;1999.90;999.90;;;;;;;22.71;90.60;98140.25;5052015;28;20045;-66
2021/07/12 03:32:08;;;;;;;1999.90;999.90;;;;;;;22.40;92.23;98140.00;5052827;28;20052;-66
2021/07/12 03:34:37;;;;;;;1999.90;999.90;;;;;;;22.43;92.20;98139.19;5053360;28;20378;-66
2021/07/12 03:37:04;;;;;;;1999.90;999.90;;;;;;;22.47;91.95;98149.22;5052229;28;20053;-66
2021/07/12 03:39:32;;;;;;;1999.90;999.90;;;;;;;22.38;92.07;98150.91;5052471;28;20833;-66
2021/07/12 03:41:59;;;;;;;1999.90;999.90;;;;;;;22.03;93.49;98163.88;5053119;28;20048;-65
2021/07/12 03:44:26;;;;;;;1999.90;999.90;;;;;;;21.42;97.31;98165.59;5050983;28;20115;-64
2021/07/12 03:46:52;;;;;;;1999.90;999.90;;;;;;;21.36;99.01;98170.00;5052747;28;20040;-67
2021/07/12 03:49:19;;;;;;;1999.90;999.90;;;;;;;21.51;98.60;98170.00;5052958;28;20473;-66
2021/07/12 03:51:49;;;;;;;1999.90;999.90;;;;;;;21.18;99.57;98172.81;5052081;28;20123;-67
2021/07/12 03:54:17;;;;;;;1999.90;999.90;;;;;;;20.61;100.00;98170.69;5052169;28;20045;-66
2021/07/12 03:56:44;;;;;;;1999.90;999.90;;;;;;;20.84;100.00;98161.97;5052997;28;20057;-66
2021/07/12 03:59:10;;;;;;;1999.90;999.90;;;;;;;20.96;100.00;98163.59;5051620;28;20045;-67
2021/07/12 04:01:37;;;;;;;1999.90;999.90;;;;;;;20.87;100.00;98169.59;5051168;28;20103;-66
2021/07/12 04:04:04;;;;;;;1999.90;999.90;;;;;;;21.08;98.23;98163.19;5051813;28;20442;-66
2021/07/12 04:06:31;;;;;;;1999.90;999.90;;;;;;;21.32;97.22;98163.59;5051486;28;20397;-66
2021/07/12 04:08:58;;;;;;;1999.90;999.90;;;;;;;21.07;98.07;98175.63;5051869;28;20430;-67
2021/07/12 04:11:34;;;;;;;1999.90;999.90;;;;;;;21.08;98.42;98188.47;5053161;28;20048;-66
2021/07/12 04:14:01;;;;;;;1999.90;999.90;;;;;;;20.94;98.47;98185.63;5051954;28;20052;-66
2021/07/12 04:16:28;;;;;;;1999.90;999.90;;;;;;;20.96;98.76;98176.81;5051527;28;20049;-66
2021/07/12 04:18:55;;;;;;;1999.90;999.90;;;;;;;21.21;96.94;98188.06;5051564;28;20128;-67
2021/07/12 04:21:21;;;;;;;1999.90;999.90;;;;;;;21.31;95.82;98190.09;5051764;28;20119;-66
2021/07/12 04:23:49;;;;;;;1999.90;999.90;;;;;;;21.31;95.72;98186.47;5051135;28;20118;-67
2021/07/12 04:26:15;;;;;;;1999.90;999.90;;;;;;;21.55;94.42;98180.03;5052319;28;20040;-66
2021/07/12 04:28:42;;;;;;;1999.90;999.90;;;;;;;21.75;92.89;98177.63;5051094;28;20045;-67
2021/07/12 04:31:12;;;;;;;1999.90;999.90;;;;;;;21.93;91.74;98194.47;5049444;28;20202;-66
2021/07/12 04:33:38;;;;;;;1999.90;999.90;;;;;;;22.10;90.70;98192.00;5051900;28;20051;-68
2021/07/12 04:36:05;;;;;;;1999.90;999.90;;;;;;;22.19;90.38;98188.75;5050067;28;20049;-68
2021/07/12 04:38:31;;;;;;;1999.90;999.90;;;;;;;21.93;91.02;98188.03;5050690;28;20049;-68
2021/07/12 04:40:58;;;;;;;1999.90;999.90;;;;;;;21.90;90.69;98186.00;5041993;28;20045;-68
2021/07/12 04:43:24;;;;;;;1999.90;999.90;;;;;;;21.94;90.82;98192.44;5051314;28;20048;-68
2021/07/12 04:45:51;;;;;;;1999.90;999.90;;;;;;;21.64;92.05;98188.06;5051078;28;20052;-68
2021/07/12 04:48:17;;;;;;;1999.90;999.90;;;;;;;21.69;90.77;98172.78;5052026;28;20114;-66
2021/07/12 04:50:44;;;;;;;1999.90;999.90;;;;;;;21.63;90.44;98167.59;5051260;28;20053;-67
2021/07/12 04:53:10;;;;;;;1999.90;999.90;;;;;;;21.49;90.26;98170.38;5050747;28;20053;-67
2021/07/12 04:55:37;;;;;;;1999.90;999.90;;;;;;;21.37;90.92;98179.25;5051552;28;20103;-67
2021/07/12 04:58:04;;;;;;;1999.90;999.90;;;;;;;21.08;92.49;98171.63;5051473;28;20202;-67
2021/07/12 05:00:32;;;;;;;1999.90;999.90;;;;;;;20.68;94.11;98161.53;5050295;28;20446;-67
2021/07/12 05:02:59;;;;;;;1999.90;999.90;;;;;;;21.22;92.07;98159.56;5050912;28;20036;-67
2021/07/12 05:05:25;;;;;;;1999.90;999.90;;;;;;;21.16;91.98;98166.78;5051157;28;20118;-67
2021/07/12 05:07:52;;;;;;;1999.90;999.90;;;;;;;21.04;92.71;98159.56;5050135;28;20049;-67
2021/07/12 05:10:18;;;;;;;1999.90;999.90;;;;;;;20.99;91.91;98157.16;5050859;28;20099;-68
2021/07/12 05:12:45;;;;;;;1999.90;999.90;;;;;;;20.83;93.02;98153.94;5051174;28;20190;-68
2021/07/12 05:15:12;;;;;;;1999.90;999.90;;;;;;;20.87;92.46;98157.53;5050078;28;20053;-68
2021/07/12 05:17:39;;;;;;;1999.90;999.90;;;;;;;20.84;93.21;98163.94;5049559;28;20349;-68
2021/07/12 05:20:06;;;;;;;1999.90;999.90;;;;;;;20.87;93.22;98154.72;5050965;28;20436;-68
2021/07/12 05:22:34;;;;;;;1999.90;999.90;;;;;;;21.09;91.82;98155.53;5050289;28;20041;-68
2021/07/12 05:25:02;;;;;;;1999.90;999.90;;;;;;;20.50;94.16;98147.38;5050732;28;20571;-68
2021/07/12 05:27:29;;;;;;;1999.90;999.90;;;;;;;20.13;95.98;98152.09;5051164;28;20049;-68
2021/07/12 05:29:55;;;;;;;1999.90;999.90;;;;;;;20.04;97.46;98148.84;5049677;28;20037;-68
2021/07/12 05:32:22;;;;;;;1999.90;999.90;;;;;;;19.86;98.86;98155.19;5050287;28;20045;-68
2021/07/12 05:34:48;;;;;;;1999.90;999.90;;;;;;;19.92;98.90;98147.19;5050979;28;20044;-68
2021/07/12 05:37:15;;;;;;;1999.90;999.90;;;;;;;20.32;97.65;98144.53;5048647;28;20045;-68
2021/07/12 05:39:41;;;;;;;1999.90;999.90;;;;;;;20.40;96.47;98141.34;5049404;28;20390;-68
2021/07/12 05:42:08;;;;;;;1999.90;999.90;;;;;;;20.93;93.96;98158.72;5051089;28;20049;-68
2021/07/12 05:44:35;;;;;;;1999.90;999.90;;;;;;;21.02;92.89;98155.53;5049298;28;20075;-68
2021/07/12 05:47:01;;;;;;;1999.90;999.90;;;;;;;21.32;91.91;98172.00;5049622;28;20142;-68
2021/07/12 05:49:28;;;;;;;1999.90;999.90;;;;;;;21.41;91.75;98166.78;5051177;28;20041;-68
2021/07/12 05:51:55;;;;;;;1999.90;999.90;;;;;;;21.60;91.07;98165.59;5049590;28;20387;-67
2021/07/12 05:54:22;;;;;;;1999.90;999.90;;;;;;;21.64;89.77;98176.81;5048209;28;20048;-67
2021/07/12 05:56:48;;;;;;;1999.90;999.90;;;;;;;21.79;88.64;98178.41;5051022;28;20103;-67
2021/07/12 05:59:15;;;;;;;1999.90;999.90;;;;;;;21.43;89.71;98180.44;5048714;28;20081;-67
2021/07/12 06:01:50;;;;;;;1999.90;999.90;;;;;;;21.56;89.80;98186.50;5048493;28;20120;-67
2021/07/12 06:04:17;;;;;;;1999.90;999.90;;;;;;;21.83;88.61;98178.41;5050567;28;20052;-67
2021/07/12 06:06:43;;;;;;;1999.90;999.90;;;;;;;21.88;88.09;98174.38;5049997;28;20080;-67
2021/07/12 06:09:10;;;;;;;1999.90;999.90;;;;;;;21.99;87.64;98175.16;5049374;28;20508;-67
2021/07/12 06:11:37;;;;;;;1999.90;999.90;;;;;;;21.61;88.40;98167.19;5049906;28;20044;-67
2021/07/12 06:14:03;;;;;;;1999.90;999.90;;;;;;;21.92;87.12;98170.34;5049451;28;20153;-67
2021/07/12 06:16:30;;;;;;;1999.90;999.90;;;;;;;21.89;87.56;98170.34;5049007;28;20446;-67
2021/07/12 06:18:57;;;;;;;1999.90;999.90;;;;;;;21.73;88.43;98168.75;5049812;28;20535;-67
2021/07/12 06:21:24;;;;;;;1999.90;999.90;;;;;;;21.77;88.40;98166.75;5049748;28;20091;-67
2021/07/12 06:23:51;;;;;;;1999.90;999.90;;;;;;;21.73;88.59;98163.13;5048990;28;20068;-67
2021/07/12 06:26:18;;;;;;;1999.90;999.90;;;;;;;21.73;88.93;98163.13;5049627;28;20040;-67
2021/07/12 06:28:45;;;;;;;1999.90;999.90;;;;;;;21.66;89.34;98162.34;5049376;28;20102;-67
2021/07/12 06:31:11;;;;;;;1999.90;999.90;;;;;;;21.60;89.85;98159.13;5048395;28;20118;-68
2021/07/12 06:33:38;;;;;;;1999.90;999.90;;;;;;;21.73;89.61;98160.31;5049032;28;20128;-67
2021/07/12 06:36:06;;;;;;;1999.90;999.90;;;;;;;21.89;87.96;98162.69;5049654;28;20076;-68
2021/07/12 06:38:33;;;;;;;1999.90;999.90;;;;;;;21.79;88.29;98155.91;5048657;28;20061;-68
2021/07/12 06:41:00;;;;;;;1999.90;999.90;;;;;;;21.40;90.06;98153.91;5049493;28;20037;-67
2021/07/12 06:43:27;;;;;;;1999.90;999.90;;;;;;;21.13;91.03;98164.00;5050509;28;20071;-68
2021/07/12 06:45:55;;;;;;;1999.90;999.90;;;;;;;21.11;91.78;98162.38;5047387;28;20061;-68
2021/07/12 06:48:22;;;;;;;1999.90;999.90;;;;;;;21.26;90.72;98159.56;5049748;28;20049;-68
2021/07/12 06:50:49;;;;;;;1999.90;999.90;;;;;;;21.36;90.25;98163.56;5048803;28;20098;-68
2021/07/12 06:53:32;;;;;;;1999.90;999.90;;;;;;;21.41;89.28;98175.22;5048730;28;20141;-68
2021/07/12 06:55:59;;;;;;;1999.90;999.90;;;;;;;21.60;89.11;98167.59;5049107;28;20061;-68
2021/07/12 06:58:25;;;;;;;1999.90;999.90;;;;;;;21.59;89.09;98168.81;5051059;28;20057;-68
2021/07/12 07:00:52;;;;;;;1999.90;999.90;;;;;;;21.69;89.36;98173.63;5052171;28;20053;-67
2021/07/12 07:03:19;;;;;;;1999.90;999.90;;;;;;;21.88;88.42;98189.22;5052724;28;20068;-67
2021/07/12 07:05:45;;;;;;;1999.90;999.90;;;;;;;22.07;87.55;98187.97;5053322;28;20114;-67
2021/07/12 07:08:12;;;;;;;1999.90;999.90;;;;;;;22.02;87.86;98168.69;5052529;28;20049;-67
2021/07/12 07:10:38;;;;;;;1999.90;999.90;;;;;;;22.12;86.98;98167.88;5052950;28;20053;-66
2021/07/12 07:13:05;;;;;;;1999.90;999.90;;;;;;;21.64;88.88;98162.75;5053988;28;20082;-66
2021/07/12 07:15:31;;;;;;;1999.90;999.90;;;;;;;20.95;92.87;98156.34;5052516;28;20049;-65
2021/07/12 07:17:59;;;;;;;1999.90;999.90;;;;;;;21.18;92.81;98161.56;5052736;28;20045;-65
2021/07/12 07:20:26;;;;;;;1999.90;999.90;;;;;;;21.20;92.16;98166.78;5052563;28;20437;-65
2021/07/12 07:22:52;;;;;;;1999.90;999.90;;;;;;;21.58;90.23;98170.00;5052515;28;20052;-65
2021/07/12 07:25:19;;;;;;;1999.90;999.90;;;;;;;21.65;90.03;98172.81;5052941;28;20114;-65
2021/07/12 07:27:46;;;;;;;1999.90;999.90;;;;;;;21.49;90.71;98178.03;5053237;28;20080;-66
2021/07/12 07:30:13;;;;;;;1999.90;999.90;;;;;;;21.77;89.28;98185.66;5052405;28;20496;-66
2021/07/12 07:32:41;;;;;;;1999.90;999.90;;;;;;;21.65;88.72;98184.06;5052296;28;20102;-66
2021/07/12 07:35:08;;;;;;;1999.90;999.90;;;;;;;20.74;94.41;98194.44;5053725;28;20120;-66
2021/07/12 07:37:36;;;;;;;1999.90;999.90;;;;;;;20.84;94.92;98187.25;5052884;28;20452;-66
2021/07/12 07:40:05;;;;;;;1999.90;999.90;;;;;;;20.63;96.43;98173.91;5052042;28;20374;-66
2021/07/12 07:42:32;;;;;;;1999.90;999.90;;;;;;;20.84;96.70;98172.38;5053296;28;20049;-66
2021/07/12 07:45:01;;;;;;;1999.90;999.90;;;;;;;21.53;93.63;98181.69;5052755;28;20099;-66
2021/07/12 07:47:28;;;;;;;1999.90;999.90;;;;;;;22.01;91.24;98183.97;5051443;28;20441;-66
2021/07/12 07:50:15;;;;;;;1999.90;999.90;;;;;;;21.85;91.87;98181.59;5041045;28;20152;-66
2021/07/12 07:52:42;;;;;;;1999.90;999.90;;;;;;;21.50;94.33;98174.84;5051576;28;20323;-66
2021/07/12 07:55:10;;;;;;;1999.90;999.90;;;;;;;21.29;94.95;98161.56;5051935;28;20053;-66
2021/07/12 07:57:36;;;;;;;1999.90;999.90;;;;;;;21.66;94.21;98163.19;5052412;28;20539;-66
2021/07/12 08:00:09;;;;;;;1999.90;999.90;;;;;;;22.04;92.55;98155.00;5052712;28;20067;-68
2021/07/12 08:02:35;;;;;;;1999.90;999.90;;;;;;;22.37;90.22;98150.06;5049224;28;20088;-66
2021/07/12 08:05:03;;;;;;;1999.90;999.90;;;;;;;22.62;90.00;98155.56;5050787;28;20434;-67
2021/07/12 08:07:30;;;;;;;1999.90;999.90;;;;;;;22.85;88.60;98157.03;5050471;28;20098;-67
2021/07/12 08:09:57;;;;;;;1999.90;999.90;;;;;;;22.39;89.62;98163.75;5048734;28;20108;-67
2021/07/12 08:12:23;;;;;;;1999.90;999.90;;;;;;;22.98;87.27;98175.06;5050021;28;20045;-67
2021/07/12 08:14:50;;;;;;;1999.90;999.90;;;;;;;23.41;86.36;98176.78;5051606;28;20075;-67
2021/07/12 08:17:16;;;;;;;1999.90;999.90;;;;;;;23.63;87.04;98182.25;5049854;28;20045;-67
2021/07/12 08:19:43;;;;;;;1999.90;999.90;;;;;;;24.05;84.30;98177.38;5051392;28;20037;-67
2021/07/12 08:22:09;;;;;;;1999.90;999.90;;;;;;;23.67;85.45;98180.16;5052595;28;20098;-67
2021/07/12 08:24:36;;;;;;;1999.90;999.90;;;;;;;23.92;86.12;98171.47;5051702;28;20056;-67
2021/07/12 08:27:03;;;;;;;1999.90;999.90;;;;;;;23.76;83.89;98183.31;5051464;28;20099;-67
2021/07/12 08:29:30;;;;;;;1999.90;999.90;;;;;;;23.87;83.60;98188.88;5052013;28;20401;-67
2021/07/12 08:31:56;;;;;;;1999.90;999.90;;;;;;;24.41;81.19;98185.41;5051177;28;20397;-68
2021/07/12 08:34:25;;;;;;;1999.90;999.90;;;;;;;24.49;78.55;98186.13;5051319;28;20056;-67
2021/07/12 08:36:52;;;;;;;1999.90;999.90;;;;;;;25.36;75.23;98180.84;5051247;28;20041;-68
2021/07/12 08:39:20;;;;;;;1999.90;999.90;;;;;;;25.11;74.03;98178.41;5051407;28;20056;-68
2021/07/12 08:41:47;;;;;;;1999.90;999.90;;;;;;;25.23;73.64;98183.44;5050867;28;20083;-68
2021/07/12 08:44:29;;;;;;;1999.90;999.90;;;;;;;25.47;70.76;98180.66;5051858;28;20442;-68
2021/07/12 08:46:56;;;;;;;1999.90;999.90;;;;;;;24.90;70.89;98173.88;5051614;28;20422;-67
2021/07/12 08:49:25;;;;;;;1999.90;999.90;;;;;;;24.29;73.94;98183.16;5050718;28;20435;-67
2021/07/12 08:51:51;;;;;;;1999.90;999.90;;;;;;;24.18;73.74;98194.59;5051555;28;20049;-67
2021/07/12 08:54:18;;;;;;;1999.90;999.90;;;;;;;24.59;74.23;98191.69;5051478;28;20072;-66
2021/07/12 08:56:44;;;;;;;1999.90;999.90;;;;;;;24.79;76.32;98191.00;5050030;28;20060;-67
2021/07/12 08:59:31;;;;;;;1999.90;999.90;;;;;;;24.75;79.24;98179.72;5051474;28;20147;-67
2021/07/12 09:02:15;;;;;;;1999.90;999.90;;;;;;;25.27;74.38;98177.75;5050939;28;20103;-67
2021/07/12 09:04:44;;;;;;;1999.90;999.90;;;;;;;25.55;73.64;98190.66;5050829;28;20048;-67
2021/07/12 09:07:22;;;;;;;1999.90;999.90;;;;;;;25.27;75.53;98184.19;5049077;28;20048;-66
2021/07/12 09:10:05;;;;;;;1999.90;999.90;;;;;;;24.17;78.36;98176.03;5051059;28;20041;-67
2021/07/12 09:12:46;;;;;;;1999.90;999.90;;;;;;;24.91;75.96;98167.78;5051465;28;20058;-67
2021/07/12 09:15:14;;;;;;;1999.90;999.90;;;;;;;24.82;77.78;98169.53;5050330;28;20438;-67
2021/07/12 09:17:49;;;;;;;1999.90;999.90;;;;;;;25.66;74.22;98164.97;5050193;28;20041;-67
2021/07/12 09:20:33;;;;;;;1999.90;999.90;;;;;;;26.26;74.46;98165.06;5051505;28;20037;-67
2021/07/12 09:23:20;;;;;;;1999.90;999.90;;;;;;;26.60;68.75;98174.47;5050459;28;20049;-67
2021/07/12 09:26:03;;;;;;;1999.90;999.90;;;;;;;25.97;66.34;98165.59;5044791;28;20045;-66
2021/07/12 09:28:45;;;;;;;1999.90;999.90;;;;;;;26.27;66.56;98169.47;5050963;28;20041;-66
2021/07/12 09:31:25;;;;;;;1999.90;999.90;;;;;;;26.51;64.52;98173.03;5050710;28;20335;-68
2021/07/12 09:33:52;;;;;;;1999.90;999.90;;;;;;;25.91;66.45;98173.00;5049974;28;20084;-67
2021/07/12 09:36:32;;;;;;;1999.90;999.90;;;;;;;26.78;65.30;98174.09;5050069;28;20045;-66
2021/07/12 09:39:19;;;;;;;1999.90;999.90;;;;;;;26.34;63.25;98169.34;5050730;28;20045;-67
2021/07/12 09:41:50;;;;;;;1999.90;999.90;;;;;;;27.05;65.16;98160.50;5049983;28;20037;-68
2021/07/12 09:44:20;;;;;;;1999.90;999.90;;;;;;;27.29;62.24;98168.84;5048827;28;20056;-67
2021/07/12 09:46:47;;;;;;;1999.90;999.90;;;;;;;27.92;60.21;98166.84;5050140;28;20404;-67
2021/07/12 09:49:16;;;;;;;1999.90;999.90;;;;;;;27.37;61.63;98170.28;5050965;28;20053;-67
2021/07/12 09:51:43;;;;;;;1999.90;999.90;;;;;;;27.47;62.50;98161.94;5049060;28;20098;-65
2021/07/12 09:54:25;;;;;;;1999.90;999.90;;;;;;;28.25;62.03;98161.84;5049786;28;20102;-66
2021/07/12 09:56:54;;;;;;;1999.90;999.90;;;;;;;29.15;60.34;98158.34;5048473;28;20052;-67
2021/07/12 09:59:21;;;;;;;1999.90;999.90;;;;;;;28.98;56.16;98160.50;5048925;28;20045;-66
2021/07/12 10:01:54;;;;;;;1999.90;999.90;;;;;;;28.25;59.63;98161.84;5048595;28;20459;-65
2021/07/12 10:04:23;;;;;;;1999.90;999.90;;;;;;;28.88;58.96;98170.19;5049753;28;20041;-65
2021/07/12 10:06:51;;;;;;;1999.90;999.90;;;;;;;29.15;57.50;98162.00;5050309;28;20111;-65
2021/07/12 10:09:22;;;;;;;1999.90;999.90;;;;;;;30.26;58.76;98158.63;5049309;28;20145;-65
2021/07/12 10:11:53;;;;;;;1999.90;999.90;;;;;;;28.31;59.37;98158.47;5050354;28;20063;-66
2021/07/12 10:14:21;;;;;;;;;;;;;;;27.21;61.30;98161.75;5049935;28;20040;-65
2021/07/12 10:16:50;;;;;;;1999.90;999.90;;;;;;;27.10;62.12;98152.72;5048118;28;19921;-66
2021/07/12 10:19:18;;;;;;;1999.90;999.90;;;;;;;27.48;60.98;98157.84;5049706;28;20118;-65
2021/07/12 10:21:49;;;;;;;1999.90;999.90;;;;;;;26.23;65.07;98148.13;5050018;28;20052;-65
2021/07/12 10:24:19;;;;;;;1999.90;999.90;;;;;;;25.55;72.12;98142.53;5049124;28;20442;-66
2021/07/12 10:26:49;;;;;;;1999.90;999.90;;;;;;;25.09;71.65;98132.78;5047944;28;20045;-67
2021/07/12 10:29:22;;;;;;;1999.90;999.90;;;;;;;26.05;67.12;98120.16;5050446;28;20053;-65
2021/07/12 10:32:04;;;;;;;1999.90;999.90;;;;;;;26.00;66.73;98127.13;5048288;28;20076;-64
2021/07/12 10:34:47;;;;;;;1999.90;999.90;;;;;;;24.95;69.89;98122.47;5047897;28;20099;-65
2021/07/12 10:37:23;;;;;;;1999.90;999.90;;;;;;;24.59;71.62;98123.84;5049984;28;20439;-65
2021/07/12 10:40:08;;;;;;;1999.90;999.90;;;;;;;25.72;69.80;98119.97;5049780;28;20052;-64
2021/07/12 10:42:41;;;;;;;1999.90;999.90;;;;;;;27.01;65.22;98113.59;5048981;28;20442;-64
2021/07/12 10:45:10;;;;;;;1999.90;999.90;;;;;;;27.68;62.20;98118.78;5049686;28;20041;-65
2021/07/12 10:47:56;;;;;;;1999.90;999.90;;;;;;;27.73;61.98;98106.88;5050249;28;20052;-65
2021/07/12 10:50:36;;;;;;;1999.90;999.90;;;;;;;27.61;61.58;98118.97;5049149;28;20041;-65
2021/07/12 10:53:03;;;;;;;1999.90;999.90;;;;;;;28.00;63.06;98108.56;5048906;28;20044;-65
2021/07/12 10:55:32;;;;;;;1999.90;999.90;;;;;;;28.49;58.23;98109.59;5042598;28;20095;-64
2021/07/12 10:58:26;;;;;;;1999.90;999.90;;;;;;;28.49;58.53;98109.59;5050209;28;20057;-65
2021/07/12 11:00:57;;;;;;;1999.90;999.90;;;;;;;28.15;62.26;98105.34;5048356;28;20049;-65
2021/07/12 11:03:42;;;;;;;1999.90;999.90;;;;;;;28.53;59.84;98108.25;5048202;28;20131;-65
2021/07/12 11:06:11;;;;;;;1999.90;999.90;;;;;;;27.53;60.08;98109.84;5046939;28;20110;-65
2021/07/12 11:08:49;;;;;;;1999.90;999.90;;;;;;;27.79;61.72;98097.81;5049399;28;20049;-65